Time;durP1;ratioP1;P1;durP2;ratioP2;P2;SDS_P1;SDS_P2;PMS_P1;PMS_P2;Temp;Humidity;BMP_temperature;BMP_pressure;BME280_temperature;BME280_humidity;BME280_pressure;Samples;Min_cycle;Max_cycle;Signal;HPM_P1;HPM_P2
2023/01/14 00:01:27;;;;;;;11.10;2.38;;;7.80;99.90;;;;;;4987889;28;20034;-64
2023/01/14 00:03:53;;;;;;;11.50;2.50;;;7.80;99.90;;;;;;4988128;28;20030;-64
2023/01/14 00:06:21;;;;;;;13.02;2.85;;;7.70;99.90;;;;;;4988079;22;20137;-64
2023/01/14 00:08:52;;;;;;;15.05;2.33;;;7.70;99.90;;;;;;4978563;28;20105;-64
2023/01/14 00:11:17;;;;;;;14.33;2.67;;;7.80;99.90;;;;;;4971718;28;20164;-64
2023/01/14 00:13:43;;;;;;;9.60;2.20;;;7.80;99.90;;;;;;4980987;28;20294;-64
2023/01/14 00:16:13;;;;;;;12.65;2.72;;;7.80;99.90;;;;;;4967171;28;20050;-64
2023/01/14 00:18:39;;;;;;;12.10;2.17;;;7.80;99.90;;;;;;4954146;28;20047;-64
2023/01/14 00:21:10;;;;;;;10.02;2.00;;;7.90;99.90;;;;;;4952234;28;20039;-64
2023/01/14 00:23:36;;;;;;;;;;;7.90;99.90;;;;;;4966872;28;20038;-64
2023/01/14 00:26:13;;;;;;;13.25;3.25;;;7.90;99.90;;;;;;4962691;28;20529;-64
2023/01/14 00:28:40;;;;;;;16.58;2.55;;;7.90;99.90;;;;;;4954452;28;20049;-64
2023/01/14 00:31:09;;;;;;;10.50;1.90;;;7.90;99.90;;;;;;4974352;28;20142;-64
2023/01/14 00:33:35;;;;;;;15.80;2.42;;;7.80;99.90;;;;;;4967077;28;20046;-64
2023/01/14 00:36:01;;;;;;;10.10;2.53;;;7.70;99.90;;;;;;4975853;28;20378;-64
2023/01/14 00:38:27;;;;;;;10.75;2.75;;;7.70;99.90;;;;;;4963165;28;20705;-65
2023/01/14 00:41:07;;;;;;;8.77;2.50;;;7.80;99.90;;;;;;4967235;28;20039;-65
2023/01/14 00:43:34;;;;;;;10.20;2.78;;;7.80;99.90;;;;;;4975849;28;20082;-65
2023/01/14 00:46:00;;;;;;;13.15;2.60;;;7.80;99.90;;;;;;4959406;28;20030;-64
2023/01/14 00:48:26;;;;;;;12.27;2.55;;;7.80;99.90;;;;;;4971735;28;20042;-65
2023/01/14 00:50:51;;;;;;;7.90;2.47;;;7.80;99.90;;;;;;4950417;28;20089;-64
2023/01/14 00:53:17;;;;;;;16.38;2.50;;;7.70;99.90;;;;;;4951292;28;20047;-64
2023/01/14 00:55:43;;;;;;;12.48;2.95;;;7.60;99.90;;;;;;4940570;28;20047;-64
2023/01/14 00:58:09;;;;;;;16.60;2.45;;;7.50;99.90;;;;;;4963833;28;20077;-64
2023/01/14 01:00:34;;;;;;;12.20;2.25;;;7.40;99.90;;;;;;4955917;29;20074;-64
2023/01/14 01:03:00;;;;;;;14.48;3.05;;;7.40;99.90;;;;;;4944229;28;20035;-65
2023/01/14 01:05:25;;;;;;;22.50;3.20;;;7.30;99.90;;;;;;4966196;28;20495;-65
2023/01/14 01:07:51;;;;;;;12.07;3.17;;;7.40;99.90;;;;;;4967780;28;20038;-65
2023/01/14 01:10:16;;;;;;;9.38;2.30;;;7.40;99.90;;;;;;4975442;28;20035;-64
2023/01/14 01:12:42;;;;;;;13.73;3.05;;;7.40;99.90;;;;;;4964924;28;20122;-65
2023/01/14 01:15:08;;;;;;;16.40;3.38;;;7.50;99.90;;;;;;4966684;28;20071;-65
2023/01/14 01:17:34;;;;;;;15.15;2.95;;;7.60;99.90;;;;;;4973289;28;20070;-64
2023/01/14 01:19:59;;;;;;;15.18;3.08;;;7.60;99.90;;;;;;4970970;28;20066;-64
2023/01/14 01:22:25;;;;;;;15.90;3.03;;;7.70;99.90;;;;;;4965800;28;20047;-65
2023/01/14 01:24:51;;;;;;;16.98;3.08;;;7.70;99.90;;;;;;4968895;28;20070;-64
2023/01/14 01:27:16;;;;;;;13.30;3.08;;;7.70;99.90;;;;;;4971680;28;20039;-65
2023/01/14 01:29:42;;;;;;;21.77;3.45;;;7.70;99.90;;;;;;4965462;28;20046;-64
2023/01/14 01:32:08;;;;;;;14.68;2.30;;;7.70;99.90;;;;;;4966176;28;20469;-64
2023/01/14 01:34:33;;;;;;;11.30;2.50;;;7.70;99.90;;;;;;4957076;28;20043;-64
2023/01/14 01:36:59;;;;;;;16.42;2.67;;;7.70;99.90;;;;;;4963428;28;20034;-65
2023/01/14 01:39:24;;;;;;;14.30;2.58;;;7.70;99.90;;;;;;4948686;28;20404;-64
2023/01/14 01:41:50;;;;;;;16.05;3.35;;;7.60;99.90;;;;;;4974435;28;20043;-65
2023/01/14 01:44:15;;;;;;;11.02;2.63;;;7.60;99.90;;;;;;4974252;28;20067;-65
2023/01/14 01:46:42;;;;;;;15.77;2.83;;;7.60;99.90;;;;;;4942188;28;20126;-65
2023/01/14 01:49:13;;;;;;;19.00;2.90;;;7.60;99.90;;;;;;4964860;28;20035;-65
2023/01/14 01:51:45;;;;;;;;;;;7.60;99.90;;;;;;4970815;28;20515;-64
2023/01/14 01:54:11;;;;;;;12.27;2.90;;;7.60;99.90;;;;;;4958970;28;19930;-65
2023/01/14 01:56:39;;;;;;;16.65;2.75;;;7.50;99.90;;;;;;4964056;28;20557;-64
2023/01/14 01:59:09;;;;;;;15.32;2.85;;;7.50;99.90;;;;;;4974525;28;20150;-65
2023/01/14 02:01:35;;;;;;;18.27;3.78;;;7.50;99.90;;;;;;4970149;28;20078;-65
2023/01/14 02:04:01;;;;;;;16.65;2.80;;;7.50;99.90;;;;;;4962940;28;20035;-65
2023/01/14 02:06:27;;;;;;;16.02;3.10;;;7.50;99.90;;;;;;4965888;28;20099;-64
2023/01/14 02:08:55;;;;;;;19.60;2.90;;;7.50;99.90;;;;;;4970091;28;20090;-64
2023/01/14 02:11:45;;;;;;;14.40;2.35;;;7.50;99.90;;;;;;4961895;28;20055;-64
2023/01/14 02:14:36;;;;;;;15.20;2.72;;;7.50;99.90;;;;;;4969134;28;20054;-64
2023/01/14 02:17:26;;;;;;;17.88;2.67;;;7.60;99.90;;;;;;4973939;28;20094;-64
2023/01/14 02:20:18;;;;;;;12.02;2.45;;;7.50;99.90;;;;;;4969764;28;20038;-64
2023/01/14 02:22:55;;;;;;;15.20;2.63;;;7.60;99.90;;;;;;4964747;28;20538;-64
2023/01/14 02:25:59;;;;;;;12.70;2.60;;;7.60;99.90;;;;;;4982770;28;20516;-64
2023/01/14 02:29:04;;;;;;;14.95;2.60;;;7.60;99.90;;;;;;4964519;28;20154;-64
2023/01/14 02:31:41;;;;;;;13.40;2.58;;;7.60;99.90;;;;;;4971316;28;20089;-64
2023/01/14 02:34:19;;;;;;;14.75;2.75;;;7.60;99.90;;;;;;4971854;28;20046;-64
2023/01/14 02:36:52;;;;;;;19.70;3.35;;;7.70;99.90;;;;;;4964549;28;20034;-65
2023/01/14 02:39:47;;;;;;;14.20;2.40;;;7.70;99.90;;;;;;4965692;28;20548;-64
2023/01/14 02:45:12;;;;;;;13.85;2.75;;;7.70;99.90;;;;;;4962727;28;20129;-64
2023/01/14 02:47:41;;;;;;;11.50;2.33;;;7.70;99.90;;;;;;4964943;28;20173;-64
2023/01/14 02:50:07;;;;;;;16.13;3.17;;;7.70;99.90;;;;;;4973868;28;20038;-64
2023/01/14 02:52:33;;;;;;;15.20;2.53;;;7.70;99.90;;;;;;4964278;28;20413;-64
2023/01/14 02:55:00;;;;;;;13.57;2.58;;;7.70;99.90;;;;;;4963819;28;20118;-64
2023/01/14 02:57:41;;;;;;;17.67;2.97;;;7.80;99.90;;;;;;4970201;28;20470;-64
2023/01/14 03:00:29;;;;;;;9.47;2.17;;;7.70;99.90;;;;;;4969219;28;20066;-64
2023/01/14 03:03:03;;;;;;;14.45;2.60;;;7.60;99.90;;;;;;4961588;28;20580;-64
2023/01/14 03:05:38;;;;;;;13.48;2.88;;;7.60;99.90;;;;;;4953021;28;20405;-64
2023/01/14 03:08:12;;;;;;;15.13;2.40;;;7.60;99.90;;;;;;4970857;28;20126;-64
2023/01/14 03:11:04;;;;;;;12.88;2.53;;;7.50;99.90;;;;;;4962564;28;20051;-65
2023/01/14 03:13:48;;;;;;;17.52;2.50;;;7.40;99.90;;;;;;4971544;28;20035;-64
2023/01/14 03:16:38;;;;;;;10.13;2.50;;;7.30;99.90;;;;;;4965108;28;20039;-64
2023/01/14 03:19:29;;;;;;;11.35;2.63;;;7.10;99.90;;;;;;4962360;28;20117;-64
2023/01/14 03:21:57;;;;;;;12.93;2.50;;;7.00;99.90;;;;;;4953284;29;20063;-64
2023/01/14 03:24:35;;;;;;;11.18;2.58;;;6.90;99.90;;;;;;4955300;28;20039;-64
2023/01/14 03:27:19;;;;;;;12.02;2.30;;;6.80;99.90;;;;;;4961332;28;20043;-64
2023/01/14 03:29:48;;;;;;;8.10;1.80;;;6.80;99.90;;;;;;4972679;28;20043;-64
2023/01/14 03:32:24;;;;;;;15.25;3.03;;;6.70;99.90;;;;;;4961432;28;20098;-64
2023/01/14 03:35:07;;;;;;;13.32;2.90;;;6.60;99.90;;;;;;4943527;28;20074;-64
2023/01/14 03:37:35;;;;;;;11.43;2.55;;;6.60;99.90;;;;;;4970565;28;20031;-64
2023/01/14 03:40:05;;;;;;;14.80;2.78;;;6.60;99.90;;;;;;4972581;28;20057;-64
2023/01/14 03:42:40;;;;;;;14.43;3.70;;;6.60;99.90;;;;;;4963475;28;20050;-64
2023/01/14 03:45:17;;;;;;;15.73;3.20;;;6.60;99.90;;;;;;4963216;28;20085;-64
2023/01/14 03:47:44;;;;;;;14.35;2.75;;;6.50;99.90;;;;;;4972157;28;20039;-64
2023/01/14 03:50:19;;;;;;;9.02;2.30;;;6.50;99.90;;;;;;4968180;28;20122;-64
2023/01/14 03:53:08;;;;;;;14.60;2.80;;;6.60;99.90;;;;;;4963422;28;20506;-64
2023/01/14 03:55:51;;;;;;;11.27;2.78;;;6.60;99.90;;;;;;4968532;28;20047;-64
2023/01/14 03:58:31;;;;;;;18.05;2.50;;;6.70;99.90;;;;;;4953632;28;20040;-64
2023/01/14 04:01:06;;;;;;;15.07;3.10;;;6.70;99.90;;;;;;4964498;28;20121;-64
2023/01/14 04:03:32;;;;;;;14.00;2.78;;;6.60;99.90;;;;;;4964893;28;20375;-64
2023/01/14 04:05:58;;;;;;;13.73;3.00;;;6.60;99.90;;;;;;4956431;28;20139;-64
2023/01/14 04:08:24;;;;;;;17.85;4.50;;;6.60;99.90;;;;;;4975526;28;20097;-64
2023/01/14 04:10:51;;;;;;;16.60;3.17;;;6.60;99.90;;;;;;4964714;28;20039;-64
2023/01/14 04:16:01;;;;;;;10.25;2.58;;;6.60;99.90;;;;;;4951106;28;20054;-64
2023/01/14 04:18:27;;;;;;;13.13;3.42;;;6.60;99.90;;;;;;4966813;28;20130;-64
2023/01/14 04:20:53;;;;;;;19.35;3.00;;;6.70;99.90;;;;;;4956686;28;20099;-65
2023/01/14 04:23:18;;;;;;;13.35;3.30;;;6.60;99.90;;;;;;4964466;28;20046;-64
2023/01/14 04:25:44;;;;;;;11.82;3.03;;;6.60;99.90;;;;;;4973053;28;20031;-64
2023/01/14 04:28:10;;;;;;;19.15;3.67;;;6.60;99.90;;;;;;4970881;28;20038;-64
2023/01/14 04:30:36;;;;;;;13.43;3.58;;;6.60;99.90;;;;;;4964002;28;20043;-65
2023/01/14 04:33:01;;;;;;;16.15;4.35;;;6.60;99.90;;;;;;4961175;28;20509;-64
2023/01/14 04:35:27;;;;;;;22.98;3.95;;;6.60;99.90;;;;;;4963714;28;20041;-65
2023/01/14 04:37:54;;;;;;;17.58;3.83;;;6.50;99.90;;;;;;4962029;28;20031;-65
2023/01/14 04:40:21;;;;;;;18.42;4.00;;;6.50;99.90;;;;;;4961742;28;20051;-64
2023/01/14 04:42:46;;;;;;;13.82;3.03;;;6.50;99.90;;;;;;4963491;28;20031;-64
2023/01/14 04:45:12;;;;;;;16.52;3.47;;;6.40;99.90;;;;;;4956219;28;20102;-64
2023/01/14 04:47:41;;;;;;;23.85;3.95;;;6.40;99.90;;;;;;4955979;29;20062;-65
2023/01/14 04:52:52;;;;;;;15.80;3.17;;;6.40;99.90;;;;;;4959357;28;20089;-64
2023/01/14 04:55:18;;;;;;;18.58;3.35;;;6.40;99.90;;;;;;4970426;28;20078;-65
2023/01/14 04:57:44;;;;;;;22.95;3.53;;;6.30;99.90;;;;;;4965457;28;20050;-65
2023/01/14 05:00:10;;;;;;;16.58;2.95;;;6.30;99.90;;;;;;4963264;28;20054;-64
2023/01/14 05:02:36;;;;;;;15.85;3.72;;;6.40;99.90;;;;;;4954765;28;20075;-65
2023/01/14 05:05:02;;;;;;;16.83;3.22;;;6.40;99.90;;;;;;4964490;28;20067;-65
2023/01/14 05:07:28;;;;;;;21.50;3.60;;;6.40;99.90;;;;;;4970674;28;20501;-64
2023/01/14 05:09:53;;;;;;;15.38;3.28;;;6.30;99.90;;;;;;4957812;28;20051;-64
2023/01/14 05:12:19;;;;;;;17.13;3.40;;;6.30;99.90;;;;;;4960299;28;20047;-65
2023/01/14 05:14:44;;;;;;;15.50;3.50;;;6.30;99.90;;;;;;4968875;28;20043;-65
2023/01/14 05:17:10;;;;;;;25.58;4.05;;;6.30;99.90;;;;;;4968665;28;20035;-65
2023/01/14 05:19:35;;;;;;;20.73;4.05;;;6.20;99.90;;;;;;4955979;29;20040;-64
2023/01/14 05:22:01;;;;;;;26.83;4.20;;;6.20;99.90;;;;;;4954432;28;20486;-64
2023/01/14 05:24:27;;;;;;;20.70;4.35;;;6.20;99.90;;;;;;4963987;28;20101;-65
2023/01/14 05:26:53;;;;;;;22.63;5.03;;;6.20;99.90;;;;;;4963254;28;20035;-65
2023/01/14 05:29:18;;;;;;;20.83;4.60;;;6.10;99.90;;;;;;4958164;28;20527;-64
2023/01/14 05:31:46;;;;;;;17.95;4.38;;;6.10;99.90;;;;;;4963491;28;20043;-65
2023/01/14 05:34:12;;;;;;;20.00;4.75;;;6.10;99.90;;;;;;4969734;28;20105;-64
2023/01/14 05:36:38;;;;;;;16.88;4.50;;;6.10;99.90;;;;;;4974890;28;20461;-65
2023/01/14 05:39:03;;;;;;;25.08;5.03;;;6.10;99.90;;;;;;4962189;28;20035;-65
2023/01/14 05:41:29;;;;;;;22.77;4.72;;;6.10;99.90;;;;;;4962792;28;20129;-65
2023/01/14 05:46:39;;;;;;;24.10;5.65;;;6.10;99.90;;;;;;4944608;28;20054;-65
2023/01/14 05:49:04;;;;;;;18.38;4.47;;;6.10;99.90;;;;;;4963894;28;20043;-64
2023/01/14 05:51:30;;;;;;;16.20;4.80;;;6.10;99.90;;;;;;4955824;28;20043;-65
2023/01/14 05:53:55;;;;;;;25.95;5.15;;;6.10;99.90;;;;;;4952751;28;20042;-64
2023/01/14 05:56:21;;;;;;;27.45;6.15;;;6.10;99.90;;;;;;4963288;28;20035;-65
2023/01/14 05:58:47;;;;;;;23.65;4.85;;;6.10;99.90;;;;;;4963258;28;20453;-65
2023/01/14 06:06:43;;;;;;;29.17;5.50;;;6.10;99.90;;;;;;5028809;22;20053;-64
2023/01/14 06:09:13;;;;;;;28.20;5.00;;;6.10;99.90;;;;;;5012645;28;20041;-65
2023/01/14 06:12:02;;;;;;;23.60;5.25;;;6.10;99.90;;;;;;5012289;28;20040;-64
2023/01/14 06:14:30;;;;;;;18.60;4.50;;;6.20;99.90;;;;;;5017794;28;20057;-65
2023/01/14 06:16:57;;;;;;;24.95;4.30;;;6.20;99.90;;;;;;5010012;28;20038;-65
2023/01/14 06:19:23;;;;;;;32.55;5.03;;;6.20;99.90;;;;;;5005742;28;20053;-65
2023/01/14 06:21:49;;;;;;;29.85;5.75;;;6.20;99.90;;;;;;5010077;28;20029;-65
2023/01/14 06:24:15;;;;;;;21.38;5.10;;;6.20;99.90;;;;;;5013739;28;20614;-64
2023/01/14 06:26:41;;;;;;;28.60;5.30;;;6.20;99.90;;;;;;5005973;28;20121;-63
2023/01/14 06:29:10;;;;;;;29.70;4.82;;;6.20;99.90;;;;;;4997426;28;20088;-65
2023/01/14 06:31:37;;;;;;;20.30;4.80;;;6.20;99.90;;;;;;4990988;28;20050;-65
2023/01/14 06:34:03;;;;;;;27.48;4.28;;;6.20;99.90;;;;;;5001416;28;20038;-65
2023/01/14 06:36:30;;;;;;;26.25;4.45;;;6.20;99.90;;;;;;4994793;28;20041;-65
2023/01/14 06:38:56;;;;;;;25.25;4.30;;;6.20;99.90;;;;;;4999768;28;20046;-65
2023/01/14 06:41:22;;;;;;;22.65;4.47;;;6.20;99.90;;;;;;5004986;28;20399;-65
2023/01/14 06:43:48;;;;;;;21.20;4.40;;;6.20;99.90;;;;;;4983536;28;20033;-64
2023/01/14 06:46:15;;;;;;;32.25;4.45;;;6.20;99.90;;;;;;4988161;28;20185;-64
2023/01/14 06:48:42;;;;;;;26.88;5.00;;;6.20;99.90;;;;;;5002510;28;20033;-65
2023/01/14 06:51:12;;;;;;;36.08;5.32;;;6.30;99.90;;;;;;5001989;28;20053;-65
2023/01/14 06:53:38;;;;;;;26.90;4.63;;;6.30;99.90;;;;;;4993509;28;20053;-65
2023/01/14 06:56:07;;;;;;;30.15;4.90;;;6.30;99.90;;;;;;4998923;28;20046;-64
2023/01/14 06:58:33;;;;;;;24.02;4.35;;;6.30;99.90;;;;;;4998072;28;20042;-64
2023/01/14 07:00:59;;;;;;;21.05;4.43;;;6.30;99.90;;;;;;5001328;28;20048;-65
2023/01/14 07:03:25;;;;;;;25.95;4.65;;;6.30;99.90;;;;;;5011734;28;20037;-65
2023/01/14 07:05:51;;;;;;;29.92;4.68;;;6.30;99.90;;;;;;5012332;28;20389;-65
2023/01/14 07:08:17;;;;;;;27.20;4.22;;;6.30;99.90;;;;;;5004770;28;20053;-65
2023/01/14 07:10:48;;;;;;;24.92;4.32;;;6.30;99.90;;;;;;4998605;28;20083;-65
2023/01/14 07:13:14;;;;;;;32.45;4.13;;;6.30;99.90;;;;;;4991373;28;20404;-65
2023/01/14 07:15:39;;;;;;;32.53;4.30;;;6.30;99.90;;;;;;4995103;28;20924;-67
2023/01/14 07:18:05;;;;;;;33.47;4.65;;;6.30;99.90;;;;;;4977055;28;20121;-65
2023/01/14 07:20:30;;;;;;;22.52;4.93;;;6.30;99.90;;;;;;5000763;28;20049;-65
2023/01/14 07:23:01;;;;;;;27.52;4.75;;;6.30;99.90;;;;;;5011725;28;20140;-66
2023/01/14 07:25:26;;;;;;;26.80;4.28;;;6.30;99.90;;;;;;5010409;28;20042;-66
2023/01/14 07:27:52;;;;;;;23.10;4.28;;;6.40;99.90;;;;;;5003577;28;20042;-66
2023/01/14 07:30:18;;;;;;;19.35;4.50;;;6.40;99.90;;;;;;5005821;28;20049;-65
2023/01/14 07:32:43;;;;;;;20.20;4.35;;;6.40;99.90;;;;;;4992501;28;20161;-65
2023/01/14 07:35:09;;;;;;;27.15;4.90;;;6.40;99.90;;;;;;4991885;28;20070;-64
2023/01/14 07:37:35;;;;;;;31.80;5.80;;;6.40;99.90;;;;;;4990729;28;20042;-65
2023/01/14 07:40:00;;;;;;;25.55;4.05;;;6.40;99.90;;;;;;5009489;28;20038;-65
2023/01/14 07:42:26;;;;;;;24.55;4.38;;;6.50;99.90;;;;;;5000687;28;20041;-64
2023/01/14 07:44:52;;;;;;;24.88;4.55;;;6.50;99.90;;;;;;5007184;28;20042;-64
2023/01/14 07:47:17;;;;;;;24.05;4.25;;;6.50;99.90;;;;;;5007133;28;20069;-64
2023/01/14 07:49:43;;;;;;;19.00;4.03;;;6.50;99.90;;;;;;5011919;28;20037;-64
2023/01/14 07:52:12;;;;;;;27.85;4.47;;;6.60;99.90;;;;;;4990233;28;20041;-64
2023/01/14 07:54:41;;;;;;;22.17;3.88;;;6.60;99.90;;;;;;5006322;28;20041;-65
2023/01/14 07:57:09;;;;;;;17.55;3.60;;;6.60;99.90;;;;;;5011156;28;20045;-65
2023/01/14 07:59:34;;;;;;;26.10;4.55;;;6.60;99.90;;;;;;4996465;28;20042;-64
2023/01/14 08:02:00;;;;;;;29.90;4.25;;;6.70;99.90;;;;;;4991729;28;20042;-64
2023/01/14 08:04:25;;;;;;;20.92;4.90;;;6.70;99.90;;;;;;5004061;28;20030;-65
2023/01/14 08:06:51;;;;;;;24.08;3.67;;;6.70;99.90;;;;;;5002008;28;20504;-65
2023/01/14 08:09:17;;;;;;;22.38;4.28;;;6.70;99.90;;;;;;4985327;28;20049;-65
2023/01/14 08:11:43;;;;;;;21.13;4.72;;;6.70;99.90;;;;;;4998058;28;20056;-65
2023/01/14 08:14:09;;;;;;;17.33;3.80;;;6.80;99.90;;;;;;5004561;28;20407;-65
2023/01/14 08:16:35;;;;;;;17.17;3.28;;;6.80;99.90;;;;;;4991180;28;20477;-65
2023/01/14 08:19:00;;;;;;;19.95;4.00;;;6.80;99.90;;;;;;4995542;28;20054;-65
2023/01/14 08:21:26;;;;;;;27.77;3.85;;;6.80;99.90;;;;;;4991461;28;20030;-64
2023/01/14 08:23:51;;;;;;;22.77;3.75;;;6.80;99.90;;;;;;4989677;28;20030;-65
2023/01/14 08:26:17;;;;;;;19.27;3.33;;;6.80;99.90;;;;;;4998889;28;20043;-65
2023/01/14 08:28:43;;;;;;;20.55;3.13;;;6.80;99.90;;;;;;5010218;28;20357;-64
2023/01/14 08:31:14;;;;;;;16.63;3.10;;;6.80;99.90;;;;;;5010770;28;20100;-64
2023/01/14 08:33:42;;;;;;;25.42;3.67;;;6.80;99.90;;;;;;4987898;28;20054;-65
2023/01/14 08:36:13;;;;;;;19.45;2.88;;;6.80;99.90;;;;;;4996434;28;20064;-65
2023/01/14 08:38:40;;;;;;;26.00;3.70;;;6.80;99.90;;;;;;5008219;28;20046;-65
2023/01/14 08:41:11;;;;;;;24.95;3.65;;;6.90;99.90;;;;;;4985756;28;20041;-65
2023/01/14 08:43:38;;;;;;;21.23;3.40;;;6.80;99.90;;;;;;5003072;28;20169;-65
2023/01/14 08:46:05;;;;;;;17.85;3.00;;;6.80;99.90;;;;;;5003405;28;20507;-65
2023/01/14 08:48:30;;;;;;;22.02;3.55;;;6.80;99.90;;;;;;4974917;28;20050;-66
2023/01/14 08:51:01;;;;;;;18.55;4.45;;;6.80;99.90;;;;;;4979196;28;20046;-65
2023/01/14 08:53:31;;;;;;;15.75;3.70;;;6.80;99.90;;;;;;4994488;28;20412;-65
2023/01/14 08:55:58;;;;;;;18.88;3.45;;;6.90;99.90;;;;;;5005503;28;20523;-66
2023/01/14 08:58:24;;;;;;;13.07;3.35;;;6.80;99.90;;;;;;4988313;28;20042;-66
2023/01/14 09:00:53;;;;;;;16.55;3.60;;;6.90;99.90;;;;;;5004543;28;20377;-65
2023/01/14 09:03:19;;;;;;;24.05;3.85;;;6.90;99.90;;;;;;4979995;28;20030;-65
2023/01/14 09:05:45;;;;;;;21.38;3.50;;;6.90;99.90;;;;;;4991492;28;20034;-65
2023/01/14 09:19:12;;;;;;;15.43;3.60;;;7.00;99.90;;;;;;5013004;28;20522;-65
2023/01/14 09:21:38;;;;;;;15.27;3.33;;;7.00;99.90;;;;;;4996978;28;20030;-65
2023/01/14 09:24:04;;;;;;;16.77;3.08;;;7.00;99.90;;;;;;5000640;28;20057;-66
2023/01/14 09:26:29;;;;;;;11.98;3.28;;;7.00;99.90;;;;;;4987409;28;20041;-65
2023/01/14 09:28:55;;;;;;;13.45;3.13;;;7.00;99.90;;;;;;5001442;28;20125;-65
2023/01/14 09:31:21;;;;;;;13.40;2.92;;;7.10;99.90;;;;;;4994656;28;20050;-66
2023/01/14 09:33:46;;;;;;;12.88;2.97;;;7.10;99.90;;;;;;5005940;28;20044;-65
2023/01/14 09:36:12;;;;;;;15.45;3.33;;;7.10;99.90;;;;;;4997341;28;20512;-65
2023/01/14 09:38:37;;;;;;;15.07;3.03;;;7.10;99.90;;;;;;4992341;28;20125;-65
2023/01/14 09:41:03;;;;;;;12.55;3.05;;;7.20;99.90;;;;;;5008636;28;20042;-65
2023/01/14 09:43:30;;;;;;;12.60;3.00;;;7.20;99.90;;;;;;5004616;28;20034;-65
2023/01/14 09:46:00;;;;;;;12.93;3.95;;;7.20;99.90;;;;;;5013507;28;20065;-66
2023/01/14 09:48:29;;;;;;;11.30;3.08;;;7.20;99.90;;;;;;4998438;28;20046;-67
2023/01/14 09:51:16;;;;;;;10.88;3.03;;;7.20;99.90;;;;;;5002946;28;20050;-66
2023/01/14 09:54:02;;;;;;;12.40;2.83;;;7.20;99.90;;;;;;5005639;28;20037;-66
2023/01/14 09:57:01;;;;;;;12.15;3.42;;;7.20;99.90;;;;;;4990162;28;20590;-66
2023/01/14 09:59:49;;;;;;;11.60;3.58;;;7.30;99.90;;;;;;4999612;28;20030;-66
2023/01/14 10:02:19;;;;;;;7.57;2.67;;;7.30;99.90;;;;;;4997865;28;20057;-66
2023/01/14 10:04:51;;;;;;;15.23;4.13;;;7.30;99.90;;;;;;4989883;28;20042;-66
2023/01/14 10:07:17;;;;;;;;;;;7.30;99.90;;;;;;4984438;28;20053;-66
2023/01/14 10:09:51;;;;;;;9.05;2.85;;;7.30;99.90;;;;;;4993515;28;19924;-66
2023/01/14 10:12:27;;;;;;;10.68;3.17;;;7.30;99.90;;;;;;5003611;28;20078;-66
2023/01/14 10:15:08;;;;;;;11.52;4.18;;;7.40;99.90;;;;;;4999859;28;20038;-66
2023/01/14 10:17:38;;;;;;;9.75;3.47;;;7.40;99.90;;;;;;4997688;28;20580;-66
2023/01/14 10:20:26;;;;;;;10.63;3.63;;;7.40;99.90;;;;;;5008994;28;20467;-66
2023/01/14 10:23:27;;;;;;;10.30;3.85;;;7.40;99.90;;;;;;4997678;28;20528;-67
2023/01/14 10:25:54;;;;;;;10.52;3.97;;;7.40;99.90;;;;;;4983662;28;20050;-67
2023/01/14 10:28:26;;;;;;;13.63;3.92;;;7.50;99.90;;;;;;5000645;28;20053;-67
2023/01/14 10:30:52;;;;;;;9.50;4.03;;;7.40;99.90;;;;;;5000184;28;20113;-67
2023/01/14 10:33:20;;;;;;;11.50;3.78;;;7.50;99.90;;;;;;4996408;28;20057;-67
2023/01/14 10:35:59;;;;;;;11.55;4.28;;;7.50;99.90;;;;;;5003674;28;20033;-67
2023/01/14 10:38:26;;;;;;;9.80;3.63;;;7.50;99.90;;;;;;4997517;28;20191;-66
2023/01/14 10:41:04;;;;;;;10.55;3.45;;;7.60;99.90;;;;;;4995420;28;20104;-64
2023/01/14 10:43:39;;;;;;;10.52;3.92;;;7.60;99.90;;;;;;4998307;28;20037;-65
2023/01/14 10:46:08;;;;;;;8.40;3.30;;;7.70;99.90;;;;;;5003502;28;20030;-65
2023/01/14 10:49:02;;;;;;;6.35;2.90;;;7.70;99.90;;;;;;5006808;28;20041;-65
2023/01/14 10:51:47;;;;;;;8.07;3.45;;;7.70;99.90;;;;;;4965852;28;20397;-65
2023/01/14 10:54:17;;;;;;;8.93;3.28;;;7.70;99.90;;;;;;4995995;28;20105;-65
2023/01/14 10:56:50;;;;;;;7.75;3.40;;;7.80;99.90;;;;;;5009526;28;20038;-66
2023/01/14 10:59:39;;;;;;;11.50;3.60;;;7.80;99.90;;;;;;5004719;28;20046;-66
2023/01/14 11:02:17;;;;;;;11.73;3.38;;;7.90;99.90;;;;;;4997287;28;20041;-64
2023/01/14 11:04:43;;;;;;;4.53;2.60;;;7.90;99.90;;;;;;4998392;28;20026;-65
2023/01/14 11:07:20;;;;;;;7.68;3.15;;;7.90;99.90;;;;;;4984255;28;20045;-64
2023/01/14 11:09:46;;;;;;;6.82;2.80;;;8.00;99.90;;;;;;4997706;28;20038;-64
2023/01/14 11:12:29;;;;;;;5.72;2.65;;;8.00;99.90;;;;;;5000262;28;20049;-64
2023/01/14 11:14:54;;;;;;;6.78;2.58;;;8.10;99.90;;;;;;5007525;28;20061;-64
2023/01/14 11:17:25;;;;;;;5.20;2.15;;;8.10;99.90;;;;;;4993875;28;20549;-64
2023/01/14 11:19:51;;;;;;;5.18;2.55;;;8.10;99.90;;;;;;4981614;28;20085;-64
2023/01/14 11:22:18;;;;;;;5.95;2.30;;;8.10;99.90;;;;;;5005431;28;20048;-65
2023/01/14 11:24:54;;;;;;;9.65;2.45;;;8.10;99.90;;;;;;5002737;28;20084;-65
2023/01/14 11:27:23;;;;;;;7.55;2.42;;;8.10;99.90;;;;;;5000451;28;20124;-66
2023/01/14 11:29:54;;;;;;;5.75;2.47;;;8.20;99.90;;;;;;4990201;28;20078;-65
2023/01/14 11:32:24;;;;;;;6.75;2.58;;;8.10;99.90;;;;;;4985616;28;20527;-63
2023/01/14 11:34:54;;;;;;;7.25;2.60;;;8.20;99.90;;;;;;5001541;28;20696;-65
2023/01/14 11:37:37;;;;;;;9.07;2.83;;;8.10;99.90;;;;;;4995536;28;20041;-64
2023/01/14 11:40:04;;;;;;;5.50;2.30;;;8.10;99.90;;;;;;4998564;28;20037;-64
2023/01/14 11:42:33;;;;;;;4.00;2.08;;;8.10;99.90;;;;;;4990656;28;20034;-64
2023/01/14 11:45:07;;;;;;;7.43;2.75;;;8.10;99.90;;;;;;5010141;28;20514;-64
2023/01/14 11:47:47;;;;;;;7.53;2.10;;;8.20;99.90;;;;;;4994592;28;20072;-64
2023/01/14 11:50:27;;;;;;;6.53;2.40;;;8.10;99.90;;;;;;4992080;28;20061;-63
2023/01/14 11:52:59;;;;;;;5.23;2.13;;;8.20;99.90;;;;;;4979206;28;20041;-64
2023/01/14 11:55:31;;;;;;;6.55;2.20;;;8.20;99.90;;;;;;5001951;28;20042;-64
2023/01/14 11:58:21;;;;;;;6.40;2.30;;;8.30;99.90;;;;;;4990904;28;20050;-64
2023/01/14 12:00:54;;;;;;;5.88;2.45;;;8.30;99.90;;;;;;4998818;28;20046;-64
2023/01/14 12:03:49;;;;;;;4.32;2.60;;;8.20;99.90;;;;;;4997492;28;20046;-64
2023/01/14 12:06:23;;;;;;;4.70;2.50;;;8.30;99.90;;;;;;4997609;28;20068;-64
2023/01/14 12:09:01;;;;;;;6.28;2.47;;;8.30;99.90;;;;;;4996707;28;20488;-64
2023/01/14 12:11:33;;;;;;;5.38;2.20;;;8.30;99.90;;;;;;4998860;28;20130;-64
2023/01/14 12:16:55;;;;;;;5.78;2.60;;;8.30;99.90;;;;;;4993200;28;20049;-64
2023/01/14 12:19:34;;;;;;;4.82;2.05;;;8.40;99.90;;;;;;4997016;28;20508;-64
2023/01/14 12:22:20;;;;;;;6.30;2.83;;;8.40;99.90;;;;;;4980931;28;20046;-64
2023/01/14 12:24:49;;;;;;;4.03;2.30;;;8.50;99.90;;;;;;5004111;28;20048;-64
2023/01/14 12:27:43;;;;;;;5.47;2.22;;;8.40;99.90;;;;;;4994879;28;20060;-65
2023/01/14 12:30:15;;;;;;;5.43;2.17;;;8.40;99.90;;;;;;4988542;28;20095;-64
2023/01/14 12:32:46;;;;;;;;;;;8.50;99.90;;;;;;5014035;28;20052;-64
2023/01/14 12:35:15;;;;;;;4.18;2.38;;;8.50;99.90;;;;;;5002097;28;20389;-64
2023/01/14 12:37:52;;;;;;;8.88;2.28;;;8.50;99.90;;;;;;5004619;28;20454;-64
2023/01/14 12:46:18;;;;;;;5.32;2.10;;;8.60;99.90;;;;;;5011714;28;20421;-64
2023/01/14 12:48:44;;;;;;;3.80;2.15;;;8.70;99.90;;;;;;4995805;28;20493;-64
2023/01/14 12:51:20;;;;;;;3.75;2.05;;;8.60;99.90;;;;;;4993674;28;20225;-64
2023/01/14 12:54:06;;;;;;;5.28;2.35;;;8.70;99.90;;;;;;5000955;28;20389;-64
2023/01/14 12:56:36;;;;;;;6.30;2.30;;;8.70;99.90;;;;;;4999095;28;20042;-64
2023/01/14 12:59:21;;;;;;;5.15;2.22;;;8.70;99.90;;;;;;4994590;28;20117;-64
2023/01/14 13:01:58;;;;;;;4.13;2.28;;;8.80;99.90;;;;;;5004231;28;20036;-64
2023/01/14 13:04:28;;;;;;;7.05;2.38;;;8.70;99.90;;;;;;5010018;28;20105;-64
2023/01/14 13:07:03;;;;;;;2.40;1.92;;;8.80;99.90;;;;;;5010877;28;20057;-65
2023/01/14 13:09:39;;;;;;;2.92;1.95;;;8.80;99.90;;;;;;5004053;28;20037;-65
2023/01/14 13:12:11;;;;;;;3.55;2.25;;;8.90;99.90;;;;;;5013324;28;20030;-65
2023/01/14 13:14:38;;;;;;;5.68;2.50;;;8.90;99.90;;;;;;4996477;28;20121;-65
2023/01/14 13:17:18;;;;;;;2.78;2.10;;;9.00;99.90;;;;;;4992912;28;20101;-65
2023/01/14 13:19:54;;;;;;;3.15;2.00;;;9.00;99.90;;;;;;4995503;28;20050;-65
2023/01/14 13:22:50;;;;;;;3.75;2.08;;;9.10;99.90;;;;;;5007964;28;20088;-65
2023/01/14 13:25:29;;;;;;;5.32;2.10;;;9.20;99.90;;;;;;5026785;28;20096;-65
2023/01/14 13:27:55;;;;;;;3.17;1.80;;;9.20;99.90;;;;;;5009011;28;20037;-65
2023/01/14 13:30:21;;;;;;;2.78;2.03;;;9.20;99.90;;;;;;5012610;28;20052;-65
2023/01/14 13:33:01;;;;;;;6.30;2.08;;;9.30;99.90;;;;;;5004974;28;20053;-65
2023/01/14 13:35:29;;;;;;;3.80;1.80;;;9.40;99.90;;;;;;5009112;28;20073;-65
2023/01/14 13:37:57;;;;;;;5.28;1.60;;;9.50;99.90;;;;;;5000577;28;20660;-65
2023/01/14 13:40:27;;;;;;;3.67;1.80;;;9.50;99.90;;;;;;5001002;28;20038;-65
2023/01/14 13:43:04;;;;;;;3.15;1.60;;;9.60;99.90;;;;;;4999950;28;20034;-65
2023/01/14 13:45:34;;;;;;;4.68;1.70;;;9.60;99.90;;;;;;5011148;28;20486;-65